sensor_id;sensor_type;location;lat;lon;timestamp;P1;durP1;ratioP1;P2;durP2;ratioP2
4057;SDS011;2044;48.692;9.020;2022-08-19T00:01:12;19.67;;;13.33;;
4057;SDS011;2044;48.692;9.020;2022-08-19T00:03:39;17.60;;;12.27;;
4057;SDS011;2044;48.692;9.020;2022-08-19T00:06:06;20.00;;;13.90;;
4057;SDS011;2044;48.692;9.020;2022-08-19T00:08:34;17.30;;;12.63;;
4057;SDS011;2044;48.692;9.020;2022-08-19T00:11:00;17.87;;;12.43;;
4057;SDS011;2044;48.692;9.020;2022-08-19T00:13:27;17.70;;;12.70;;
4057;SDS011;2044;48.692;9.020;2022-08-19T00:15:54;18.10;;;12.90;;
4057;SDS011;2044;48.692;9.020;2022-08-19T00:18:21;17.87;;;12.50;;
4057;SDS011;2044;48.692;9.020;2022-08-19T00:20:47;19.60;;;12.60;;
4057;SDS011;2044;48.692;9.020;2022-08-19T00:23:14;19.80;;;13.30;;
4057;SDS011;2044;48.692;9.020;2022-08-19T00:25:42;19.83;;;13.30;;
4057;SDS011;2044;48.692;9.020;2022-08-19T00:28:09;20.17;;;14.27;;
4057;SDS011;2044;48.692;9.020;2022-08-19T00:30:36;17.93;;;11.90;;
4057;SDS011;2044;48.692;9.020;2022-08-19T00:33:02;17.23;;;12.37;;
4057;SDS011;2044;48.692;9.020;2022-08-19T00:35:29;22.97;;;13.93;;
4057;SDS011;2044;48.692;9.020;2022-08-19T00:37:57;22.83;;;13.70;;
4057;SDS011;2044;48.692;9.020;2022-08-19T00:40:24;19.40;;;13.60;;
4057;SDS011;2044;48.692;9.020;2022-08-19T00:42:53;20.20;;;13.17;;
4057;SDS011;2044;48.692;9.020;2022-08-19T00:45:22;19.70;;;13.13;;
4057;SDS011;2044;48.692;9.020;2022-08-19T00:47:52;21.27;;;13.80;;
4057;SDS011;2044;48.692;9.020;2022-08-19T00:50:19;20.30;;;14.63;;
4057;SDS011;2044;48.692;9.020;2022-08-19T00:52:48;23.07;;;14.63;;
4057;SDS011;2044;48.692;9.020;2022-08-19T00:55:17;21.10;;;13.77;;
4057;SDS011;2044;48.692;9.020;2022-08-19T00:57:47;21.43;;;14.67;;
4057;SDS011;2044;48.692;9.020;2022-08-19T01:00:21;19.93;;;14.00;;
4057;SDS011;2044;48.692;9.020;2022-08-19T01:02:50;21.90;;;14.23;;
4057;SDS011;2044;48.692;9.020;2022-08-19T01:05:19;23.13;;;15.40;;
4057;SDS011;2044;48.692;9.020;2022-08-19T01:07:48;21.10;;;13.90;;
4057;SDS011;2044;48.692;9.020;2022-08-19T01:10:17;18.93;;;14.03;;
4057;SDS011;2044;48.692;9.020;2022-08-19T01:12:46;23.03;;;14.80;;
4057;SDS011;2044;48.692;9.020;2022-08-19T01:15:14;22.10;;;14.57;;
4057;SDS011;2044;48.692;9.020;2022-08-19T01:17:45;19.00;;;12.70;;
4057;SDS011;2044;48.692;9.020;2022-08-19T01:20:13;21.50;;;14.33;;
4057;SDS011;2044;48.692;9.020;2022-08-19T01:22:44;24.77;;;14.90;;
4057;SDS011;2044;48.692;9.020;2022-08-19T01:25:12;21.50;;;15.13;;
4057;SDS011;2044;48.692;9.020;2022-08-19T01:27:41;21.60;;;15.07;;
4057;SDS011;2044;48.692;9.020;2022-08-19T01:30:10;24.80;;;15.40;;
4057;SDS011;2044;48.692;9.020;2022-08-19T01:32:38;23.10;;;15.70;;
4057;SDS011;2044;48.692;9.020;2022-08-19T01:35:05;27.23;;;15.77;;
4057;SDS011;2044;48.692;9.020;2022-08-19T01:37:42;23.07;;;15.77;;
4057;SDS011;2044;48.692;9.020;2022-08-19T01:40:10;25.07;;;15.53;;
4057;SDS011;2044;48.692;9.020;2022-08-19T01:42:37;22.57;;;15.27;;
4057;SDS011;2044;48.692;9.020;2022-08-19T01:45:06;23.37;;;14.37;;
4057;SDS011;2044;48.692;9.020;2022-08-19T01:47:34;22.70;;;16.37;;
4057;SDS011;2044;48.692;9.020;2022-08-19T01:50:01;26.57;;;17.33;;
4057;SDS011;2044;48.692;9.020;2022-08-19T01:52:29;26.73;;;17.10;;
4057;SDS011;2044;48.692;9.020;2022-08-19T01:54:57;25.63;;;17.03;;
4057;SDS011;2044;48.692;9.020;2022-08-19T01:57:24;24.80;;;16.40;;
4057;SDS011;2044;48.692;9.020;2022-08-19T01:59:51;30.23;;;18.60;;
4057;SDS011;2044;48.692;9.020;2022-08-19T02:02:18;28.63;;;16.83;;
4057;SDS011;2044;48.692;9.020;2022-08-19T02:04:44;26.87;;;17.47;;
4057;SDS011;2044;48.692;9.020;2022-08-19T02:07:12;30.47;;;18.53;;
4057;SDS011;2044;48.692;9.020;2022-08-19T02:09:38;25.47;;;17.07;;
4057;SDS011;2044;48.692;9.020;2022-08-19T02:12:07;27.97;;;17.33;;
4057;SDS011;2044;48.692;9.020;2022-08-19T02:14:34;28.17;;;18.63;;
4057;SDS011;2044;48.692;9.020;2022-08-19T02:17:01;28.00;;;16.17;;
4057;SDS011;2044;48.692;9.020;2022-08-19T02:19:28;26.30;;;18.33;;
4057;SDS011;2044;48.692;9.020;2022-08-19T02:21:56;27.60;;;17.73;;
4057;SDS011;2044;48.692;9.020;2022-08-19T02:24:23;26.77;;;16.80;;
4057;SDS011;2044;48.692;9.020;2022-08-19T02:26:50;26.90;;;16.90;;
4057;SDS011;2044;48.692;9.020;2022-08-19T02:29:18;27.37;;;17.17;;
4057;SDS011;2044;48.692;9.020;2022-08-19T02:31:45;29.50;;;17.97;;
4057;SDS011;2044;48.692;9.020;2022-08-19T02:34:13;27.13;;;17.30;;
4057;SDS011;2044;48.692;9.020;2022-08-19T02:36:39;25.37;;;17.13;;
4057;SDS011;2044;48.692;9.020;2022-08-19T02:39:06;27.50;;;17.87;;
4057;SDS011;2044;48.692;9.020;2022-08-19T02:41:32;29.33;;;17.93;;
4057;SDS011;2044;48.692;9.020;2022-08-19T02:44:01;27.87;;;17.07;;
4057;SDS011;2044;48.692;9.020;2022-08-19T02:46:31;26.43;;;17.73;;
4057;SDS011;2044;48.692;9.020;2022-08-19T02:48:59;27.83;;;17.93;;
4057;SDS011;2044;48.692;9.020;2022-08-19T02:51:29;26.27;;;17.77;;
4057;SDS011;2044;48.692;9.020;2022-08-19T02:53:57;25.60;;;17.20;;
4057;SDS011;2044;48.692;9.020;2022-08-19T02:56:24;26.63;;;17.80;;
4057;SDS011;2044;48.692;9.020;2022-08-19T02:58:52;26.97;;;17.93;;
4057;SDS011;2044;48.692;9.020;2022-08-19T03:01:20;29.27;;;18.40;;
4057;SDS011;2044;48.692;9.020;2022-08-19T03:03:49;27.33;;;17.27;;
4057;SDS011;2044;48.692;9.020;2022-08-19T03:06:16;28.73;;;18.37;;
4057;SDS011;2044;48.692;9.020;2022-08-19T03:08:44;29.40;;;19.30;;
4057;SDS011;2044;48.692;9.020;2022-08-19T03:11:12;31.23;;;18.73;;
4057;SDS011;2044;48.692;9.020;2022-08-19T03:13:39;32.50;;;19.40;;
4057;SDS011;2044;48.692;9.020;2022-08-19T03:16:08;29.13;;;19.57;;
4057;SDS011;2044;48.692;9.020;2022-08-19T03:18:35;28.00;;;19.37;;
4057;SDS011;2044;48.692;9.020;2022-08-19T03:21:04;28.40;;;18.83;;
4057;SDS011;2044;48.692;9.020;2022-08-19T03:23:32;31.93;;;19.80;;
4057;SDS011;2044;48.692;9.020;2022-08-19T03:26:02;31.40;;;18.83;;
4057;SDS011;2044;48.692;9.020;2022-08-19T03:28:30;32.10;;;18.83;;
4057;SDS011;2044;48.692;9.020;2022-08-19T03:31:00;27.80;;;19.33;;
4057;SDS011;2044;48.692;9.020;2022-08-19T03:33:28;31.57;;;18.60;;
4057;SDS011;2044;48.692;9.020;2022-08-19T03:36:05;30.83;;;18.93;;
4057;SDS011;2044;48.692;9.020;2022-08-19T03:38:34;31.90;;;20.00;;
4057;SDS011;2044;48.692;9.020;2022-08-19T03:41:03;33.07;;;20.97;;
4057;SDS011;2044;48.692;9.020;2022-08-19T03:43:32;31.60;;;20.90;;
4057;SDS011;2044;48.692;9.020;2022-08-19T03:46:01;30.00;;;20.27;;
4057;SDS011;2044;48.692;9.020;2022-08-19T03:48:30;35.90;;;21.60;;
4057;SDS011;2044;48.692;9.020;2022-08-19T03:50:57;33.37;;;20.07;;
4057;SDS011;2044;48.692;9.020;2022-08-19T03:53:26;33.93;;;21.80;;
4057;SDS011;2044;48.692;9.020;2022-08-19T03:55:53;35.10;;;21.90;;
4057;SDS011;2044;48.692;9.020;2022-08-19T03:58:20;33.50;;;20.40;;
4057;SDS011;2044;48.692;9.020;2022-08-19T04:00:48;33.27;;;21.70;;
4057;SDS011;2044;48.692;9.020;2022-08-19T04:03:15;35.37;;;21.60;;
4057;SDS011;2044;48.692;9.020;2022-08-19T04:05:43;35.90;;;22.57;;
4057;SDS011;2044;48.692;9.020;2022-08-19T04:08:10;34.77;;;21.60;;
4057;SDS011;2044;48.692;9.020;2022-08-19T04:10:38;32.83;;;20.67;;
4057;SDS011;2044;48.692;9.020;2022-08-19T04:13:06;31.57;;;21.13;;
4057;SDS011;2044;48.692;9.020;2022-08-19T04:15:38;31.50;;;21.07;;
4057;SDS011;2044;48.692;9.020;2022-08-19T04:18:06;32.10;;;20.37;;
4057;SDS011;2044;48.692;9.020;2022-08-19T04:20:38;29.20;;;20.40;;
4057;SDS011;2044;48.692;9.020;2022-08-19T04:23:06;38.23;;;22.97;;
4057;SDS011;2044;48.692;9.020;2022-08-19T04:25:35;34.20;;;22.40;;
4057;SDS011;2044;48.692;9.020;2022-08-19T04:28:04;34.97;;;21.63;;
4057;SDS011;2044;48.692;9.020;2022-08-19T04:30:36;33.63;;;20.93;;
4057;SDS011;2044;48.692;9.020;2022-08-19T04:33:04;32.57;;;21.10;;
4057;SDS011;2044;48.692;9.020;2022-08-19T04:35:34;37.20;;;22.30;;
4057;SDS011;2044;48.692;9.020;2022-08-19T04:38:02;35.63;;;22.73;;
4057;SDS011;2044;48.692;9.020;2022-08-19T04:40:29;33.47;;;21.40;;
4057;SDS011;2044;48.692;9.020;2022-08-19T04:43:15;36.07;;;22.60;;
4057;SDS011;2044;48.692;9.020;2022-08-19T04:45:42;32.20;;;20.87;;
4057;SDS011;2044;48.692;9.020;2022-08-19T04:48:09;34.73;;;22.93;;
4057;SDS011;2044;48.692;9.020;2022-08-19T04:50:36;36.43;;;22.13;;
4057;SDS011;2044;48.692;9.020;2022-08-19T04:53:06;34.13;;;21.33;;
4057;SDS011;2044;48.692;9.020;2022-08-19T04:55:33;33.80;;;22.53;;
4057;SDS011;2044;48.692;9.020;2022-08-19T04:58:00;32.87;;;21.67;;
4057;SDS011;2044;48.692;9.020;2022-08-19T05:00:28;36.53;;;21.90;;
4057;SDS011;2044;48.692;9.020;2022-08-19T05:02:55;31.13;;;20.40;;
4057;SDS011;2044;48.692;9.020;2022-08-19T05:05:22;37.20;;;22.63;;
4057;SDS011;2044;48.692;9.020;2022-08-19T05:07:48;35.37;;;21.13;;
4057;SDS011;2044;48.692;9.020;2022-08-19T05:10:15;34.70;;;21.70;;
4057;SDS011;2044;48.692;9.020;2022-08-19T05:12:42;35.30;;;22.97;;
4057;SDS011;2044;48.692;9.020;2022-08-19T05:15:09;37.40;;;22.57;;
4057;SDS011;2044;48.692;9.020;2022-08-19T05:17:37;34.37;;;22.27;;
4057;SDS011;2044;48.692;9.020;2022-08-19T05:20:24;39.77;;;22.60;;
4057;SDS011;2044;48.692;9.020;2022-08-19T05:23:22;36.80;;;22.07;;
4057;SDS011;2044;48.692;9.020;2022-08-19T05:25:49;32.70;;;21.53;;
4057;SDS011;2044;48.692;9.020;2022-08-19T05:28:16;35.60;;;23.23;;
4057;SDS011;2044;48.692;9.020;2022-08-19T05:30:44;33.63;;;22.40;;
4057;SDS011;2044;48.692;9.020;2022-08-19T05:33:12;33.87;;;21.50;;
4057;SDS011;2044;48.692;9.020;2022-08-19T05:35:39;32.87;;;21.90;;
4057;SDS011;2044;48.692;9.020;2022-08-19T05:38:06;32.87;;;20.90;;
4057;SDS011;2044;48.692;9.020;2022-08-19T05:40:33;38.60;;;23.00;;
4057;SDS011;2044;48.692;9.020;2022-08-19T05:43:01;34.77;;;21.70;;
4057;SDS011;2044;48.692;9.020;2022-08-19T05:45:28;33.03;;;21.30;;
4057;SDS011;2044;48.692;9.020;2022-08-19T05:47:56;35.03;;;21.47;;
4057;SDS011;2044;48.692;9.020;2022-08-19T05:50:24;38.23;;;22.30;;
4057;SDS011;2044;48.692;9.020;2022-08-19T05:52:51;30.83;;;20.20;;
4057;SDS011;2044;48.692;9.020;2022-08-19T05:55:18;30.20;;;20.67;;
4057;SDS011;2044;48.692;9.020;2022-08-19T05:57:47;29.60;;;20.43;;
4057;SDS011;2044;48.692;9.020;2022-08-19T06:00:14;31.27;;;20.93;;
4057;SDS011;2044;48.692;9.020;2022-08-19T06:02:41;35.07;;;22.27;;
4057;SDS011;2044;48.692;9.020;2022-08-19T06:05:08;35.03;;;21.90;;
4057;SDS011;2044;48.692;9.020;2022-08-19T06:07:37;32.20;;;20.50;;
4057;SDS011;2044;48.692;9.020;2022-08-19T06:10:06;39.00;;;23.03;;
4057;SDS011;2044;48.692;9.020;2022-08-19T06:12:35;33.97;;;21.87;;
4057;SDS011;2044;48.692;9.020;2022-08-19T06:15:04;31.23;;;19.80;;
4057;SDS011;2044;48.692;9.020;2022-08-19T06:17:33;29.83;;;18.60;;
4057;SDS011;2044;48.692;9.020;2022-08-19T06:20:00;33.80;;;20.47;;
4057;SDS011;2044;48.692;9.020;2022-08-19T06:22:27;33.13;;;19.80;;
4057;SDS011;2044;48.692;9.020;2022-08-19T06:24:55;29.27;;;19.07;;
4057;SDS011;2044;48.692;9.020;2022-08-19T06:27:22;31.30;;;21.40;;
4057;SDS011;2044;48.692;9.020;2022-08-19T06:29:49;33.27;;;19.67;;
4057;SDS011;2044;48.692;9.020;2022-08-19T06:32:16;33.10;;;22.20;;
4057;SDS011;2044;48.692;9.020;2022-08-19T06:34:43;31.37;;;20.47;;
4057;SDS011;2044;48.692;9.020;2022-08-19T06:37:10;31.10;;;20.23;;
4057;SDS011;2044;48.692;9.020;2022-08-19T06:39:38;33.60;;;21.07;;
4057;SDS011;2044;48.692;9.020;2022-08-19T06:42:07;32.50;;;21.70;;
4057;SDS011;2044;48.692;9.020;2022-08-19T06:44:36;31.43;;;20.90;;
4057;SDS011;2044;48.692;9.020;2022-08-19T06:47:05;32.03;;;21.03;;
4057;SDS011;2044;48.692;9.020;2022-08-19T06:49:33;31.47;;;20.90;;
4057;SDS011;2044;48.692;9.020;2022-08-19T06:52:01;32.20;;;20.07;;
4057;SDS011;2044;48.692;9.020;2022-08-19T06:54:29;29.40;;;19.27;;
4057;SDS011;2044;48.692;9.020;2022-08-19T06:56:56;29.40;;;20.10;;
4057;SDS011;2044;48.692;9.020;2022-08-19T06:59:25;29.97;;;19.50;;
4057;SDS011;2044;48.692;9.020;2022-08-19T07:01:53;28.47;;;19.63;;
4057;SDS011;2044;48.692;9.020;2022-08-19T07:04:22;28.73;;;19.10;;
4057;SDS011;2044;48.692;9.020;2022-08-19T07:06:56;27.53;;;18.70;;
4057;SDS011;2044;48.692;9.020;2022-08-19T07:09:25;27.37;;;18.73;;
4057;SDS011;2044;48.692;9.020;2022-08-19T07:11:52;27.40;;;17.93;;
4057;SDS011;2044;48.692;9.020;2022-08-19T07:14:21;28.30;;;18.30;;
4057;SDS011;2044;48.692;9.020;2022-08-19T07:16:52;27.07;;;18.93;;
4057;SDS011;2044;48.692;9.020;2022-08-19T07:19:22;28.53;;;19.30;;
4057;SDS011;2044;48.692;9.020;2022-08-19T07:21:52;27.90;;;18.80;;
4057;SDS011;2044;48.692;9.020;2022-08-19T07:24:19;24.73;;;17.80;;
4057;SDS011;2044;48.692;9.020;2022-08-19T07:26:49;24.97;;;16.50;;
4057;SDS011;2044;48.692;9.020;2022-08-19T07:29:17;26.90;;;17.27;;
4057;SDS011;2044;48.692;9.020;2022-08-19T07:31:47;25.63;;;18.07;;
4057;SDS011;2044;48.692;9.020;2022-08-19T07:34:16;28.70;;;18.37;;
4057;SDS011;2044;48.692;9.020;2022-08-19T07:36:44;27.63;;;19.10;;
4057;SDS011;2044;48.692;9.020;2022-08-19T07:39:12;26.90;;;18.53;;
4057;SDS011;2044;48.692;9.020;2022-08-19T07:41:42;23.40;;;17.00;;
4057;SDS011;2044;48.692;9.020;2022-08-19T07:44:10;25.30;;;17.10;;
4057;SDS011;2044;48.692;9.020;2022-08-19T07:46:38;27.60;;;17.70;;
4057;SDS011;2044;48.692;9.020;2022-08-19T07:49:07;23.57;;;17.40;;
4057;SDS011;2044;48.692;9.020;2022-08-19T07:51:44;25.70;;;17.57;;
4057;SDS011;2044;48.692;9.020;2022-08-19T07:54:12;25.23;;;16.70;;
4057;SDS011;2044;48.692;9.020;2022-08-19T07:56:39;23.53;;;17.07;;
4057;SDS011;2044;48.692;9.020;2022-08-19T07:59:05;28.73;;;17.30;;
4057;SDS011;2044;48.692;9.020;2022-08-19T08:01:34;25.33;;;18.73;;
4057;SDS011;2044;48.692;9.020;2022-08-19T08:04:01;24.77;;;15.80;;
4057;SDS011;2044;48.692;9.020;2022-08-19T08:06:47;27.40;;;16.87;;
4057;SDS011;2044;48.692;9.020;2022-08-19T08:09:33;24.80;;;17.20;;
4057;SDS011;2044;48.692;9.020;2022-08-19T08:12:03;28.40;;;18.90;;
4057;SDS011;2044;48.692;9.020;2022-08-19T08:14:32;28.53;;;17.47;;
4057;SDS011;2044;48.692;9.020;2022-08-19T08:17:02;29.30;;;17.00;;
4057;SDS011;2044;48.692;9.020;2022-08-19T08:19:30;30.27;;;19.23;;
4057;SDS011;2044;48.692;9.020;2022-08-19T08:21:59;28.10;;;17.80;;
4057;SDS011;2044;48.692;9.020;2022-08-19T08:24:27;28.10;;;18.77;;
4057;SDS011;2044;48.692;9.020;2022-08-19T08:26:57;38.27;;;20.20;;
4057;SDS011;2044;48.692;9.020;2022-08-19T08:29:25;27.57;;;17.97;;
4057;SDS011;2044;48.692;9.020;2022-08-19T08:31:52;27.83;;;18.03;;
4057;SDS011;2044;48.692;9.020;2022-08-19T08:34:19;28.47;;;18.13;;
4057;SDS011;2044;48.692;9.020;2022-08-19T08:36:46;27.43;;;17.17;;
4057;SDS011;2044;48.692;9.020;2022-08-19T08:39:15;27.33;;;17.93;;
4057;SDS011;2044;48.692;9.020;2022-08-19T08:41:44;24.83;;;16.50;;
4057;SDS011;2044;48.692;9.020;2022-08-19T08:44:27;25.20;;;16.90;;
4057;SDS011;2044;48.692;9.020;2022-08-19T08:47:04;29.23;;;18.37;;
4057;SDS011;2044;48.692;9.020;2022-08-19T08:49:40;25.60;;;17.77;;
4057;SDS011;2044;48.692;9.020;2022-08-19T08:52:13;27.30;;;16.90;;
4057;SDS011;2044;48.692;9.020;2022-08-19T08:54:47;27.40;;;18.17;;
4057;SDS011;2044;48.692;9.020;2022-08-19T08:57:18;26.60;;;17.57;;
4057;SDS011;2044;48.692;9.020;2022-08-19T08:59:49;23.07;;;17.70;;
4057;SDS011;2044;48.692;9.020;2022-08-19T09:02:17;25.90;;;16.80;;
4057;SDS011;2044;48.692;9.020;2022-08-19T09:04:44;20.10;;;15.07;;
4057;SDS011;2044;48.692;9.020;2022-08-19T09:07:16;21.37;;;15.93;;
4057;SDS011;2044;48.692;9.020;2022-08-19T09:09:53;24.47;;;16.20;;
4057;SDS011;2044;48.692;9.020;2022-08-19T09:12:30;23.70;;;15.97;;
4057;SDS011;2044;48.692;9.020;2022-08-19T09:15:04;19.70;;;15.17;;
4057;SDS011;2044;48.692;9.020;2022-08-19T09:17:35;21.80;;;15.70;;
4057;SDS011;2044;48.692;9.020;2022-08-19T09:20:04;21.37;;;15.60;;
4057;SDS011;2044;48.692;9.020;2022-08-19T09:22:40;19.20;;;15.63;;
4057;SDS011;2044;48.692;9.020;2022-08-19T09:25:10;20.50;;;14.97;;
4057;SDS011;2044;48.692;9.020;2022-08-19T09:27:39;21.67;;;16.27;;
4057;SDS011;2044;48.692;9.020;2022-08-19T09:30:08;22.27;;;15.83;;
4057;SDS011;2044;48.692;9.020;2022-08-19T09:32:38;22.57;;;15.27;;
4057;SDS011;2044;48.692;9.020;2022-08-19T09:35:07;20.80;;;15.07;;
4057;SDS011;2044;48.692;9.020;2022-08-19T09:37:34;20.87;;;15.20;;
4057;SDS011;2044;48.692;9.020;2022-08-19T09:40:01;21.33;;;16.13;;
4057;SDS011;2044;48.692;9.020;2022-08-19T09:42:30;21.40;;;16.60;;
4057;SDS011;2044;48.692;9.020;2022-08-19T09:44:56;23.03;;;15.00;;
4057;SDS011;2044;48.692;9.020;2022-08-19T09:47:23;21.20;;;15.70;;
4057;SDS011;2044;48.692;9.020;2022-08-19T09:49:50;22.60;;;16.27;;
4057;SDS011;2044;48.692;9.020;2022-08-19T09:52:16;19.50;;;14.40;;
4057;SDS011;2044;48.692;9.020;2022-08-19T09:54:43;21.77;;;15.80;;
4057;SDS011;2044;48.692;9.020;2022-08-19T09:57:10;22.90;;;15.77;;
4057;SDS011;2044;48.692;9.020;2022-08-19T09:59:38;20.50;;;14.80;;
4057;SDS011;2044;48.692;9.020;2022-08-19T10:02:05;21.30;;;14.80;;
4057;SDS011;2044;48.692;9.020;2022-08-19T10:04:32;19.80;;;15.10;;
4057;SDS011;2044;48.692;9.020;2022-08-19T10:07:12;19.83;;;14.47;;
4057;SDS011;2044;48.692;9.020;2022-08-19T10:09:39;21.60;;;15.27;;
4057;SDS011;2044;48.692;9.020;2022-08-19T10:12:06;21.13;;;16.00;;
4057;SDS011;2044;48.692;9.020;2022-08-19T10:14:34;20.53;;;15.40;;
4057;SDS011;2044;48.692;9.020;2022-08-19T10:17:02;20.73;;;15.07;;
4057;SDS011;2044;48.692;9.020;2022-08-19T10:19:29;19.90;;;14.40;;
4057;SDS011;2044;48.692;9.020;2022-08-19T10:22:02;19.50;;;13.80;;
4057;SDS011;2044;48.692;9.020;2022-08-19T10:24:29;19.77;;;13.90;;
4057;SDS011;2044;48.692;9.020;2022-08-19T10:26:56;18.50;;;13.43;;
4057;SDS011;2044;48.692;9.020;2022-08-19T10:29:23;17.77;;;13.63;;
4057;SDS011;2044;48.692;9.020;2022-08-19T10:31:49;17.97;;;14.03;;
4057;SDS011;2044;48.692;9.020;2022-08-19T10:34:18;19.37;;;14.80;;
4057;SDS011;2044;48.692;9.020;2022-08-19T10:36:44;19.40;;;14.93;;
4057;SDS011;2044;48.692;9.020;2022-08-19T10:39:11;18.33;;;13.10;;
4057;SDS011;2044;48.692;9.020;2022-08-19T10:41:38;17.50;;;11.80;;
4057;SDS011;2044;48.692;9.020;2022-08-19T10:44:09;17.07;;;12.63;;
4057;SDS011;2044;48.692;9.020;2022-08-19T10:46:39;15.03;;;12.40;;
4057;SDS011;2044;48.692;9.020;2022-08-19T10:49:08;13.60;;;11.47;;
4057;SDS011;2044;48.692;9.020;2022-08-19T10:51:38;15.37;;;11.23;;
4057;SDS011;2044;48.692;9.020;2022-08-19T10:54:23;15.40;;;11.50;;
4057;SDS011;2044;48.692;9.020;2022-08-19T10:57:11;15.73;;;11.53;;
4057;SDS011;2044;48.692;9.020;2022-08-19T10:59:36;12.60;;;10.00;;
4057;SDS011;2044;48.692;9.020;2022-08-19T11:02:04;14.33;;;10.87;;
4057;SDS011;2044;48.692;9.020;2022-08-19T11:04:34;11.57;;;10.27;;
4057;SDS011;2044;48.692;9.020;2022-08-19T11:07:03;12.37;;;9.50;;
4057;SDS011;2044;48.692;9.020;2022-08-19T11:09:30;12.27;;;10.37;;
4057;SDS011;2044;48.692;9.020;2022-08-19T11:11:57;12.10;;;10.20;;
4057;SDS011;2044;48.692;9.020;2022-08-19T11:14:24;14.00;;;12.43;;
4057;SDS011;2044;48.692;9.020;2022-08-19T11:16:51;13.30;;;11.37;;
4057;SDS011;2044;48.692;9.020;2022-08-19T11:19:20;14.80;;;11.00;;
4057;SDS011;2044;48.692;9.020;2022-08-19T11:21:48;14.10;;;10.67;;
4057;SDS011;2044;48.692;9.020;2022-08-19T11:24:18;14.53;;;11.37;;
4057;SDS011;2044;48.692;9.020;2022-08-19T11:26:47;13.77;;;10.80;;
4057;SDS011;2044;48.692;9.020;2022-08-19T11:29:15;13.40;;;10.90;;
4057;SDS011;2044;48.692;9.020;2022-08-19T11:31:45;12.37;;;10.57;;
4057;SDS011;2044;48.692;9.020;2022-08-19T11:34:14;11.40;;;10.20;;
4057;SDS011;2044;48.692;9.020;2022-08-19T11:36:45;14.07;;;11.30;;
4057;SDS011;2044;48.692;9.020;2022-08-19T11:39:13;15.63;;;10.80;;
4057;SDS011;2044;48.692;9.020;2022-08-19T11:41:42;11.77;;;10.57;;
4057;SDS011;2044;48.692;9.020;2022-08-19T11:44:09;14.03;;;10.40;;
4057;SDS011;2044;48.692;9.020;2022-08-19T11:46:37;11.37;;;10.13;;
4057;SDS011;2044;48.692;9.020;2022-08-19T11:49:04;12.63;;;9.80;;
4057;SDS011;2044;48.692;9.020;2022-08-19T11:51:34;10.73;;;9.60;;
4057;SDS011;2044;48.692;9.020;2022-08-19T11:54:01;11.37;;;10.00;;
4057;SDS011;2044;48.692;9.020;2022-08-19T11:56:28;11.73;;;10.50;;
4057;SDS011;2044;48.692;9.020;2022-08-19T11:58:56;11.47;;;10.13;;
4057;SDS011;2044;48.692;9.020;2022-08-19T12:01:24;12.83;;;10.33;;
4057;SDS011;2044;48.692;9.020;2022-08-19T12:03:52;10.70;;;9.60;;
4057;SDS011;2044;48.692;9.020;2022-08-19T12:06:22;10.50;;;9.30;;
4057;SDS011;2044;48.692;9.020;2022-08-19T12:08:50;9.87;;;8.20;;
4057;SDS011;2044;48.692;9.020;2022-08-19T12:11:19;10.00;;;9.03;;
4057;SDS011;2044;48.692;9.020;2022-08-19T12:13:46;10.93;;;9.30;;
4057;SDS011;2044;48.692;9.020;2022-08-19T12:16:15;10.97;;;9.87;;
4057;SDS011;2044;48.692;9.020;2022-08-19T12:18:43;12.77;;;9.70;;
4057;SDS011;2044;48.692;9.020;2022-08-19T12:21:12;10.40;;;9.30;;
4057;SDS011;2044;48.692;9.020;2022-08-19T12:23:39;9.33;;;8.53;;
4057;SDS011;2044;48.692;9.020;2022-08-19T12:26:06;9.17;;;8.27;;
4057;SDS011;2044;48.692;9.020;2022-08-19T12:28:35;11.00;;;9.90;;
4057;SDS011;2044;48.692;9.020;2022-08-19T12:31:02;13.40;;;9.27;;
4057;SDS011;2044;48.692;9.020;2022-08-19T12:33:30;10.30;;;9.23;;
4057;SDS011;2044;48.692;9.020;2022-08-19T12:35:59;10.17;;;9.07;;
4057;SDS011;2044;48.692;9.020;2022-08-19T12:38:27;10.20;;;9.23;;
4057;SDS011;2044;48.692;9.020;2022-08-19T12:40:54;9.97;;;9.17;;
4057;SDS011;2044;48.692;9.020;2022-08-19T12:43:21;10.93;;;10.03;;
4057;SDS011;2044;48.692;9.020;2022-08-19T12:45:48;10.43;;;9.63;;
4057;SDS011;2044;48.692;9.020;2022-08-19T12:48:15;10.20;;;9.40;;
4057;SDS011;2044;48.692;9.020;2022-08-19T12:50:44;9.70;;;8.90;;
4057;SDS011;2044;48.692;9.020;2022-08-19T12:53:11;10.43;;;9.50;;
4057;SDS011;2044;48.692;9.020;2022-08-19T12:55:38;10.57;;;9.73;;
4057;SDS011;2044;48.692;9.020;2022-08-19T12:58:05;11.90;;;10.80;;
4057;SDS011;2044;48.692;9.020;2022-08-19T13:00:32;10.57;;;9.67;;
4057;SDS011;2044;48.692;9.020;2022-08-19T13:02:59;11.97;;;10.80;;
4057;SDS011;2044;48.692;9.020;2022-08-19T13:05:31;11.27;;;10.37;;
4057;SDS011;2044;48.692;9.020;2022-08-19T13:08:00;12.00;;;10.90;;
4057;SDS011;2044;48.692;9.020;2022-08-19T13:10:28;11.23;;;10.33;;
4057;SDS011;2044;48.692;9.020;2022-08-19T13:12:57;11.30;;;10.20;;
4057;SDS011;2044;48.692;9.020;2022-08-19T13:15:24;11.53;;;10.57;;
4057;SDS011;2044;48.692;9.020;2022-08-19T13:17:53;11.33;;;10.30;;
4057;SDS011;2044;48.692;9.020;2022-08-19T13:20:21;11.53;;;10.37;;
4057;SDS011;2044;48.692;9.020;2022-08-19T13:22:48;11.43;;;10.53;;
4057;SDS011;2044;48.692;9.020;2022-08-19T13:25:17;10.70;;;9.93;;
4057;SDS011;2044;48.692;9.020;2022-08-19T13:27:45;11.83;;;10.93;;
4057;SDS011;2044;48.692;9.020;2022-08-19T13:30:13;11.50;;;10.60;;
4057;SDS011;2044;48.692;9.020;2022-08-19T13:32:59;12.23;;;11.20;;
4057;SDS011;2044;48.692;9.020;2022-08-19T13:35:47;11.20;;;10.20;;
4057;SDS011;2044;48.692;9.020;2022-08-19T13:38:15;11.77;;;10.53;;
4057;SDS011;2044;48.692;9.020;2022-08-19T13:40:47;11.57;;;10.60;;
4057;SDS011;2044;48.692;9.020;2022-08-19T13:43:15;12.33;;;11.13;;
4057;SDS011;2044;48.692;9.020;2022-08-19T13:45:42;11.97;;;10.97;;
4057;SDS011;2044;48.692;9.020;2022-08-19T13:48:09;12.23;;;11.23;;
4057;SDS011;2044;48.692;9.020;2022-08-19T13:50:38;12.77;;;11.77;;
4057;SDS011;2044;48.692;9.020;2022-08-19T13:53:07;15.43;;;12.50;;
4057;SDS011;2044;48.692;9.020;2022-08-19T13:55:36;13.60;;;12.40;;
4057;SDS011;2044;48.692;9.020;2022-08-19T13:58:07;14.37;;;12.70;;
4057;SDS011;2044;48.692;9.020;2022-08-19T14:00:36;14.83;;;13.33;;
4057;SDS011;2044;48.692;9.020;2022-08-19T14:03:05;12.67;;;11.67;;
4057;SDS011;2044;48.692;9.020;2022-08-19T14:05:32;13.70;;;12.60;;
4057;SDS011;2044;48.692;9.020;2022-08-19T14:08:00;13.87;;;12.57;;
4057;SDS011;2044;48.692;9.020;2022-08-19T14:10:27;13.67;;;12.40;;
4057;SDS011;2044;48.692;9.020;2022-08-19T14:12:58;14.73;;;13.33;;
4057;SDS011;2044;48.692;9.020;2022-08-19T14:15:28;14.50;;;13.20;;
4057;SDS011;2044;48.692;9.020;2022-08-19T14:17:56;14.40;;;13.17;;
4057;SDS011;2044;48.692;9.020;2022-08-19T14:20:23;15.43;;;14.10;;
4057;SDS011;2044;48.692;9.020;2022-08-19T14:22:50;14.57;;;13.37;;
4057;SDS011;2044;48.692;9.020;2022-08-19T14:25:18;14.10;;;12.80;;
4057;SDS011;2044;48.692;9.020;2022-08-19T14:27:47;13.73;;;12.63;;
4057;SDS011;2044;48.692;9.020;2022-08-19T14:30:15;14.47;;;13.27;;
4057;SDS011;2044;48.692;9.020;2022-08-19T14:32:46;14.13;;;13.03;;
4057;SDS011;2044;48.692;9.020;2022-08-19T14:35:13;15.17;;;13.97;;
4057;SDS011;2044;48.692;9.020;2022-08-19T14:37:41;14.63;;;13.33;;
4057;SDS011;2044;48.692;9.020;2022-08-19T14:40:10;14.50;;;13.33;;
4057;SDS011;2044;48.692;9.020;2022-08-19T14:42:38;13.83;;;12.73;;
4057;SDS011;2044;48.692;9.020;2022-08-19T14:45:06;13.97;;;12.77;;
4057;SDS011;2044;48.692;9.020;2022-08-19T14:47:34;14.23;;;13.03;;
4057;SDS011;2044;48.692;9.020;2022-08-19T14:50:02;14.23;;;13.00;;
4057;SDS011;2044;48.692;9.020;2022-08-19T14:52:31;14.60;;;13.40;;
4057;SDS011;2044;48.692;9.020;2022-08-19T14:54:58;14.57;;;13.37;;
4057;SDS011;2044;48.692;9.020;2022-08-19T14:57:25;14.53;;;13.03;;